createdAt,value
2023-04-29T00:01:59.175Z,10.95
2023-04-29T00:05:05.456Z,11.15
2023-04-29T00:08:09.124Z,10.27
2023-04-29T00:11:12.490Z,12.10
2023-04-29T00:14:16.436Z,12.00
2023-04-29T00:17:19.808Z,13.45
2023-04-29T00:20:26.804Z,11.30
2023-04-29T00:23:30.056Z,10.83
2023-04-29T00:26:33.681Z,8.43
2023-04-29T00:29:37.038Z,12.25
2023-04-29T00:32:41.007Z,13.40
2023-04-29T00:35:44.453Z,9.77
2023-04-29T00:38:47.650Z,11.53
2023-04-29T00:41:51.307Z,11.23
2023-04-29T00:44:54.935Z,13.90
2023-04-29T00:47:59.140Z,10.43
2023-04-29T00:51:04.080Z,11.40
2023-04-29T00:54:09.075Z,10.43
2023-04-29T00:57:12.500Z,10.55
2023-04-29T01:00:16.361Z,11.27
2023-04-29T01:03:20.394Z,9.80
2023-04-29T01:06:49.644Z,11.20
2023-04-29T01:10:19.982Z,12.07
2023-04-29T01:13:31.420Z,11.48
2023-04-29T01:16:39.527Z,12.90
2023-04-29T01:19:50.782Z,9.57
2023-04-29T01:22:54.488Z,10.60
2023-04-29T01:25:58.823Z,11.20
2023-04-29T01:29:42.827Z,10.10
2023-04-29T01:33:10.914Z,11.52
2023-04-29T01:36:37.002Z,11.02
2023-04-29T01:40:12.400Z,10.50
2023-04-29T01:43:28.681Z,9.73
2023-04-29T01:46:32.596Z,10.82
2023-04-29T01:49:39.766Z,11.88
2023-04-29T01:52:43.902Z,11.00
2023-04-29T01:55:47.277Z,11.52
2023-04-29T01:59:01.830Z,12.20
2023-04-29T02:02:30.758Z,10.23
2023-04-29T02:05:43.144Z,10.75
2023-04-29T02:08:46.749Z,9.93
2023-04-29T02:11:50.166Z,10.00
2023-04-29T02:14:54.354Z,10.70
2023-04-29T02:17:58.306Z,10.73
2023-04-29T02:21:02.267Z,9.02
2023-04-29T02:24:06.456Z,10.88
2023-04-29T02:27:10.166Z,11.50
2023-04-29T02:30:13.590Z,11.90
2023-04-29T02:33:18.461Z,9.82
2023-04-29T02:36:21.688Z,9.63
2023-04-29T02:39:27.705Z,11.40
2023-04-29T02:42:32.163Z,12.48
2023-04-29T02:45:38.994Z,13.13
2023-04-29T02:48:42.631Z,9.15
2023-04-29T02:51:46.162Z,10.38
2023-04-29T02:54:49.488Z,9.23
2023-04-29T02:57:53.173Z,11.20
2023-04-29T03:00:56.693Z,10.63
2023-04-29T03:04:00.261Z,9.15
2023-04-29T03:07:08.039Z,9.40
2023-04-29T03:10:12.226Z,9.02
2023-04-29T03:13:15.683Z,12.32
2023-04-29T03:16:21.557Z,9.93
2023-04-29T03:19:24.840Z,10.73
2023-04-29T03:22:28.422Z,10.32
2023-04-29T03:25:31.888Z,10.23
2023-04-29T03:28:35.405Z,8.93
2023-04-29T03:31:39.251Z,11.13
2023-04-29T03:34:42.676Z,10.00
2023-04-29T03:38:14.910Z,13.00
2023-04-29T03:41:19.274Z,10.20
2023-04-29T03:44:23.894Z,10.55
2023-04-29T03:47:27.089Z,12.50
2023-04-29T03:50:30.929Z,12.18
2023-04-29T03:53:34.410Z,9.77
2023-04-29T03:56:41.195Z,10.40
2023-04-29T03:59:45.631Z,11.73
2023-04-29T04:02:49.656Z,10.83
2023-04-29T04:05:53.291Z,10.40
2023-04-29T04:08:56.600Z,11.18
2023-04-29T04:12:06.497Z,9.77
2023-04-29T04:15:10.708Z,12.57
2023-04-29T04:18:14.282Z,11.57
2023-04-29T04:21:19.167Z,10.18
2023-04-29T04:24:29.906Z,10.90
2023-04-29T04:27:33.566Z,10.65
2023-04-29T04:30:42.922Z,11.57
2023-04-29T04:33:46.718Z,9.93
2023-04-29T04:36:50.850Z,35.65
2023-04-29T04:39:54.413Z,12.02
2023-04-29T04:42:58.218Z,12.05
2023-04-29T04:46:09.705Z,10.07
2023-04-29T04:49:14.767Z,9.70
2023-04-29T04:52:25.483Z,9.63
2023-04-29T04:56:00.914Z,12.00
2023-04-29T04:59:05.444Z,12.57
2023-04-29T05:02:11.245Z,11.50
2023-04-29T05:05:14.510Z,10.97
2023-04-29T05:08:18.985Z,12.80
2023-04-29T05:11:23.840Z,13.82
2023-04-29T05:14:52.648Z,11.57
2023-04-29T05:17:56.286Z,11.95
2023-04-29T05:21:01.199Z,10.03
2023-04-29T05:24:05.390Z,12.70
2023-04-29T05:27:09.490Z,14.43
2023-04-29T05:30:13.212Z,11.75
2023-04-29T05:33:16.513Z,12.35
2023-04-29T05:36:20.736Z,13.70
2023-04-29T05:39:24.083Z,11.82
2023-04-29T05:42:38.859Z,13.68
2023-04-29T05:45:42.527Z,12.75
2023-04-29T05:48:46.202Z,11.02
2023-04-29T05:51:49.436Z,13.00
2023-04-29T05:54:52.700Z,11.88
2023-04-29T05:57:56.276Z,12.13
2023-04-29T06:01:00.097Z,11.27
2023-04-29T06:04:03.839Z,11.95
2023-04-29T06:07:19.534Z,11.73
2023-04-29T06:10:32.147Z,11.10
2023-04-29T06:13:36.286Z,11.68
2023-04-29T06:16:42.660Z,16.45
2023-04-29T06:19:46.005Z,12.05
2023-04-29T06:22:49.658Z,12.03
2023-04-29T06:25:53.275Z,13.63
2023-04-29T06:28:58.115Z,13.63
2023-04-29T06:32:01.820Z,11.77
2023-04-29T06:35:10.644Z,12.25
2023-04-29T06:38:32.754Z,10.63
2023-04-29T06:41:50.443Z,11.67
2023-04-29T06:45:12.527Z,13.70
2023-04-29T06:48:18.815Z,11.27
2023-04-29T06:51:24.824Z,12.02
2023-04-29T06:54:28.724Z,13.50
2023-04-29T06:57:32.234Z,13.33
2023-04-29T07:00:35.977Z,11.73
2023-04-29T07:03:39.837Z,12.20
2023-04-29T07:06:46.935Z,13.07
2023-04-29T07:09:52.864Z,12.77
2023-04-29T07:12:57.711Z,10.73
2023-04-29T07:16:01.297Z,11.73
2023-04-29T07:19:04.917Z,10.40
2023-04-29T07:22:08.270Z,10.98
2023-04-29T07:25:12.610Z,11.13
2023-04-29T07:28:15.977Z,13.47
2023-04-29T07:31:19.477Z,8.48
2023-04-29T07:34:22.852Z,13.30
2023-04-29T07:37:26.967Z,15.93
2023-04-29T07:40:30.411Z,11.37
2023-04-29T07:43:34.985Z,12.67
2023-04-29T07:46:38.388Z,10.05
2023-04-29T07:49:42.258Z,11.60
2023-04-29T07:52:46.003Z,8.63
2023-04-29T07:55:52.834Z,8.23
2023-04-29T07:58:59.892Z,8.77
2023-04-29T08:02:03.206Z,10.45
2023-04-29T08:05:07.062Z,8.27
2023-04-29T08:08:10.702Z,9.65
2023-04-29T08:11:18.611Z,7.80
2023-04-29T08:14:21.760Z,8.50
2023-04-29T08:17:25.457Z,8.75
2023-04-29T08:20:28.917Z,9.25
2023-04-29T08:23:33.019Z,10.30
2023-04-29T08:26:36.227Z,8.30
2023-04-29T08:29:40.112Z,8.70
2023-04-29T08:32:43.411Z,7.55
2023-04-29T08:35:46.729Z,11.73
2023-04-29T08:38:52.758Z,10.43
2023-04-29T08:41:57.936Z,9.23
2023-04-29T08:45:02.307Z,8.50
2023-04-29T08:48:10.411Z,6.40
2023-04-29T08:51:14.049Z,5.68
2023-04-29T08:54:17.725Z,8.25
2023-04-29T08:57:21.856Z,8.03
2023-04-29T09:00:25.814Z,5.80
2023-04-29T09:03:37.374Z,6.72
2023-04-29T09:06:40.835Z,5.78
2023-04-29T09:09:44.636Z,7.13
2023-04-29T09:12:48.014Z,7.07
2023-04-29T09:15:51.277Z,6.33
2023-04-29T09:18:55.352Z,9.20
2023-04-29T09:21:59.454Z,7.32
2023-04-29T09:25:15.364Z,5.88
2023-04-29T09:28:18.691Z,6.73
2023-04-29T09:31:28.772Z,6.73
2023-04-29T09:34:40.867Z,5.38
2023-04-29T09:37:44.132Z,5.82
2023-04-29T09:40:58.850Z,5.85
2023-04-29T09:44:07.792Z,7.10
2023-04-29T09:47:11.261Z,9.23
2023-04-29T09:50:16.397Z,5.18
2023-04-29T09:53:29.989Z,4.30
2023-04-29T09:56:50.833Z,5.65
2023-04-29T09:59:54.206Z,5.63
2023-04-29T10:03:01.533Z,5.30
2023-04-29T10:06:08.374Z,5.35
2023-04-29T10:09:16.301Z,6.68
2023-04-29T10:12:20.943Z,5.97
2023-04-29T10:15:36.525Z,6.47
2023-04-29T10:18:44.954Z,5.87
2023-04-29T10:21:50.292Z,7.95
2023-04-29T10:24:55.429Z,5.65
2023-04-29T10:28:00.694Z,7.38
2023-04-29T10:31:04.615Z,7.13
2023-04-29T10:34:08.092Z,5.60
2023-04-29T10:37:12.859Z,5.70
2023-04-29T10:40:54.422Z,6.80
2023-04-29T10:44:01.106Z,7.88
2023-04-29T10:47:21.217Z,5.17
2023-04-29T10:50:28.115Z,4.37
2023-04-29T10:53:31.808Z,4.88
2023-04-29T10:56:44.775Z,8.70
2023-04-29T10:59:48.509Z,9.52
2023-04-29T11:02:51.771Z,7.60
2023-04-29T11:06:09.330Z,6.90
2023-04-29T11:09:21.310Z,6.15
2023-04-29T11:12:24.656Z,6.10
2023-04-29T11:15:32.612Z,6.15
2023-04-29T11:18:37.861Z,6.23
2023-04-29T11:21:41.132Z,8.10
2023-04-29T11:25:05.969Z,6.43
2023-04-29T11:28:10.183Z,5.63
2023-04-29T11:31:13.750Z,5.90
2023-04-29T11:34:17.481Z,5.03
2023-04-29T11:37:25.410Z,7.40
2023-04-29T11:40:28.848Z,5.40
2023-04-29T11:43:32.281Z,4.85
2023-04-29T11:46:36.008Z,6.10
2023-04-29T11:49:39.359Z,6.87
2023-04-29T11:52:42.958Z,5.43
2023-04-29T11:55:47.575Z,5.93
2023-04-29T11:58:54.799Z,6.40
2023-04-29T12:02:01.017Z,6.95
2023-04-29T12:05:08.717Z,6.87
2023-04-29T12:08:12.435Z,6.63
2023-04-29T12:11:16.634Z,10.77
2023-04-29T12:14:20.500Z,4.63
2023-04-29T12:17:24.624Z,4.97
2023-04-29T12:20:29.282Z,5.80
2023-04-29T12:23:32.590Z,5.33
2023-04-29T12:26:36.259Z,6.30
2023-04-29T12:29:43.023Z,6.60
2023-04-29T12:32:46.368Z,6.57
2023-04-29T12:35:51.429Z,6.83
2023-04-29T12:38:55.928Z,5.27
2023-04-29T12:42:00.313Z,6.07
2023-04-29T12:45:03.675Z,6.22
2023-04-29T12:48:15.172Z,4.93
2023-04-29T12:51:28.873Z,4.37
2023-04-29T12:54:32.264Z,4.43
2023-04-29T12:57:35.516Z,5.95
2023-04-29T13:00:39.166Z,6.47
2023-04-29T13:03:42.564Z,9.88
2023-04-29T13:06:46.257Z,7.20
2023-04-29T13:09:49.698Z,7.83
2023-04-29T13:12:53.334Z,5.68
2023-04-29T13:15:56.767Z,5.45
2023-04-29T13:19:17.026Z,5.05
2023-04-29T13:22:24.248Z,5.63
2023-04-29T13:25:27.563Z,6.13
2023-04-29T13:28:30.826Z,5.05
2023-04-29T13:31:34.150Z,6.35
2023-04-29T13:34:38.177Z,6.50
2023-04-29T13:37:41.550Z,6.33
2023-04-29T13:40:46.562Z,7.73
2023-04-29T13:43:51.110Z,6.70
2023-04-29T13:46:54.537Z,7.63
2023-04-29T13:50:39.802Z,13.95
2023-04-29T13:53:41.989Z,5.17
2023-04-29T13:57:29.890Z,5.90
2023-04-29T14:00:20.142Z,7.13
2023-04-29T14:03:35.597Z,6.57
2023-04-29T14:06:39.752Z,6.05
2023-04-29T14:09:43.087Z,6.87
2023-04-29T14:12:46.468Z,5.27
2023-04-29T14:15:49.915Z,5.93
2023-04-29T14:18:53.245Z,5.90
2023-04-29T14:21:56.395Z,10.45
2023-04-29T14:24:59.683Z,6.03
2023-04-29T14:28:02.946Z,9.17
2023-04-29T14:31:06.460Z,6.63
2023-04-29T14:34:10.067Z,5.82
2023-04-29T14:37:13.273Z,7.13
2023-04-29T14:40:16.655Z,6.47
2023-04-29T14:43:20.014Z,6.37
2023-04-29T14:46:23.540Z,8.60
2023-04-29T14:49:27.717Z,7.07
2023-04-29T14:52:32.328Z,8.23
2023-04-29T14:55:35.688Z,6.43
2023-04-29T14:58:39.301Z,8.00
2023-04-29T15:01:42.602Z,5.53
2023-04-29T15:04:46.366Z,6.78
2023-04-29T15:07:49.667Z,6.07
2023-04-29T15:10:53.200Z,5.23
2023-04-29T15:13:56.649Z,6.23
2023-04-29T15:16:59.968Z,5.68
2023-04-29T15:20:03.681Z,7.10
2023-04-29T15:23:08.805Z,8.65
2023-04-29T15:26:12.100Z,7.77
2023-04-29T15:29:15.567Z,9.40
2023-04-29T15:32:18.965Z,5.57
2023-04-29T15:35:22.457Z,6.22
2023-04-29T15:38:25.778Z,6.15
2023-04-29T15:41:29.268Z,5.63
2023-04-29T15:44:33.440Z,6.13
2023-04-29T15:47:36.666Z,5.88
2023-04-29T15:50:40.087Z,5.78
2023-04-29T15:53:44.646Z,7.53
2023-04-29T15:56:48.040Z,7.60
2023-04-29T15:59:51.622Z,5.10
2023-04-29T16:02:55.621Z,6.70
2023-04-29T16:05:58.959Z,5.22
2023-04-29T16:09:03.936Z,5.40
2023-04-29T16:12:08.130Z,7.87
2023-04-29T16:15:11.792Z,5.60
2023-04-29T16:18:17.341Z,6.18
2023-04-29T16:21:20.631Z,7.40
2023-04-29T16:24:24.502Z,7.30
2023-04-29T16:27:30.029Z,8.17
2023-04-29T16:30:35.882Z,7.23
2023-04-29T16:33:39.968Z,7.55
2023-04-29T16:36:43.228Z,8.18
2023-04-29T16:39:46.403Z,8.75
2023-04-29T16:42:49.912Z,7.27
2023-04-29T16:45:53.178Z,7.77
2023-04-29T16:48:56.959Z,6.68
2023-04-29T16:52:00.237Z,11.38
2023-04-29T16:55:03.886Z,6.88
2023-04-29T16:58:07.206Z,7.83
2023-04-29T17:01:11.244Z,7.77
2023-04-29T17:04:14.926Z,6.55
2023-04-29T17:07:20.251Z,5.47
2023-04-29T17:10:24.047Z,8.63
2023-04-29T17:13:27.348Z,5.93
2023-04-29T17:16:35.710Z,8.00
2023-04-29T17:19:39.233Z,6.82
2023-04-29T17:22:42.640Z,5.18
2023-04-29T17:25:45.995Z,4.90
2023-04-29T17:28:49.654Z,7.27
2023-04-29T17:31:59.940Z,9.60
2023-04-29T17:35:03.556Z,7.40
2023-04-29T17:38:06.800Z,6.93
2023-04-29T17:41:10.349Z,5.80
2023-04-29T17:44:14.095Z,10.10
2023-04-29T17:47:17.469Z,8.80
2023-04-29T17:50:21.238Z,5.95
2023-04-29T17:53:24.550Z,7.95
2023-04-29T17:56:27.900Z,7.95
2023-04-29T17:59:31.482Z,7.73
2023-04-29T18:02:35.265Z,7.80
2023-04-29T18:05:38.745Z,11.90
2023-04-29T18:08:42.244Z,6.93
2023-04-29T18:11:45.802Z,6.55
2023-04-29T18:14:48.982Z,7.03
2023-04-29T18:17:54.225Z,9.33
2023-04-29T18:20:57.701Z,13.45
2023-04-29T18:24:01.664Z,11.35
2023-04-29T18:27:04.831Z,10.50
2023-04-29T18:30:08.852Z,11.27
2023-04-29T18:33:12.102Z,14.73
2023-04-29T18:36:15.614Z,7.97
2023-04-29T18:39:19.058Z,11.95
2023-04-29T18:42:22.907Z,9.10
2023-04-29T18:45:26.522Z,8.37
2023-04-29T18:48:30.934Z,8.90
2023-04-29T18:51:34.236Z,8.63
2023-04-29T18:54:37.675Z,12.27
2023-04-29T18:57:40.962Z,10.55
2023-04-29T19:00:44.326Z,14.23
2023-04-29T19:03:47.806Z,13.00
2023-04-29T19:06:51.740Z,11.15
2023-04-29T19:09:56.181Z,12.13
2023-04-29T19:12:59.990Z,10.48
2023-04-29T19:16:03.344Z,9.90
2023-04-29T19:19:06.758Z,10.23
2023-04-29T19:22:10.585Z,9.63
2023-04-29T19:25:14.112Z,10.73
2023-04-29T19:28:17.493Z,7.93
2023-04-29T19:31:21.640Z,8.27
2023-04-29T19:34:25.345Z,8.93
2023-04-29T19:37:29.260Z,8.52
2023-04-29T19:40:32.930Z,10.10
2023-04-29T19:43:36.651Z,7.10
2023-04-29T19:46:41.249Z,10.50
2023-04-29T19:49:44.786Z,7.50
2023-04-29T19:52:48.144Z,8.45
2023-04-29T19:55:52.251Z,8.60
2023-04-29T19:58:55.604Z,10.32
2023-04-29T20:01:58.980Z,11.90
2023-04-29T20:05:05.640Z,9.67
2023-04-29T20:08:08.938Z,8.02
2023-04-29T20:11:13.389Z,10.32
2023-04-29T20:14:16.562Z,9.30
2023-04-29T20:17:20.025Z,17.23
2023-04-29T20:20:24.388Z,10.37
2023-04-29T20:23:27.624Z,10.13
2023-04-29T20:26:31.137Z,9.60
2023-04-29T20:29:34.512Z,12.23
2023-04-29T20:32:38.182Z,10.60
2023-04-29T20:35:41.673Z,10.73
2023-04-29T20:38:49.154Z,11.90
2023-04-29T20:41:54.359Z,10.77
2023-04-29T20:44:57.612Z,14.45
2023-04-29T20:48:01.155Z,11.20
2023-04-29T20:51:04.660Z,14.50
2023-04-29T20:54:08.290Z,13.30
2023-04-29T20:57:11.677Z,11.45
2023-04-29T21:00:15.300Z,11.00
2023-04-29T21:03:20.806Z,12.90
2023-04-29T21:06:27.356Z,9.03
2023-04-29T21:09:30.910Z,10.20
2023-04-29T21:12:34.261Z,9.35
2023-04-29T21:15:37.547Z,11.05
2023-04-29T21:18:41.163Z,10.63
2023-04-29T21:21:44.574Z,11.43
2023-04-29T21:24:47.756Z,10.88
2023-04-29T21:27:51.028Z,9.63
2023-04-29T21:30:54.255Z,8.80
2023-04-29T21:33:57.818Z,11.90
2023-04-29T21:37:01.407Z,9.65
2023-04-29T21:40:05.490Z,11.60
2023-04-29T21:43:10.270Z,11.45
2023-04-29T21:46:13.582Z,9.00
2023-04-29T21:49:17.245Z,11.57
2023-04-29T21:52:20.608Z,9.27
2023-04-29T21:55:23.784Z,11.82
2023-04-29T21:58:27.278Z,12.25
2023-04-29T22:01:48.109Z,10.77
2023-04-29T22:04:52.442Z,11.63
2023-04-29T22:07:59.172Z,10.48
2023-04-29T22:11:02.385Z,9.75
2023-04-29T22:14:05.670Z,11.23
2023-04-29T22:17:08.988Z,12.77
2023-04-29T22:20:13.165Z,12.13
2023-04-29T22:23:16.712Z,11.13
2023-04-29T22:26:20.179Z,10.57
2023-04-29T22:29:23.475Z,10.05
2023-04-29T22:32:26.925Z,10.23
2023-04-29T22:35:30.199Z,12.27
2023-04-29T22:38:34.988Z,11.97
2023-04-29T22:41:38.334Z,13.93
2023-04-29T22:44:41.653Z,12.45
2023-04-29T22:47:45.071Z,13.50
2023-04-29T22:50:55.760Z,9.87
2023-04-29T22:53:59.417Z,12.33
2023-04-29T22:57:04.150Z,12.63
2023-04-29T23:00:08.218Z,12.50
2023-04-29T23:03:11.689Z,10.63
2023-04-29T23:06:15.578Z,11.77
2023-04-29T23:09:19.305Z,12.00
2023-04-29T23:12:22.637Z,11.23
2023-04-29T23:15:30.608Z,12.18
2023-04-29T23:18:33.887Z,12.40
2023-04-29T23:21:37.054Z,10.43
2023-04-29T23:24:40.301Z,10.00
2023-04-29T23:27:43.452Z,15.38
2023-04-29T23:30:49.627Z,16.45
2023-04-29T23:33:53.047Z,11.82
2023-04-29T23:36:56.258Z,12.33
2023-04-29T23:39:59.639Z,11.70
2023-04-29T23:43:02.932Z,11.27
2023-04-29T23:46:06.734Z,11.82
2023-04-29T23:49:10.599Z,14.40
2023-04-29T23:52:13.994Z,13.87
2023-04-29T23:55:17.276Z,15.23
2023-04-29T23:58:20.615Z,12.43
